createdAt,value
2022-12-05T00:01:56.106Z,15.30
2022-12-05T00:04:24.245Z,15.75
2022-12-05T00:06:52.224Z,16.77
2022-12-05T00:09:20.129Z,13.88
2022-12-05T00:11:48.276Z,15.05
2022-12-05T00:14:17.540Z,17.65
2022-12-05T00:16:45.946Z,16.73
2022-12-05T00:19:16.546Z,15.10
2022-12-05T00:21:45.205Z,15.63
2022-12-05T00:24:15.663Z,16.35
2022-12-05T00:26:44.118Z,16.45
2022-12-05T00:29:14.515Z,16.35
2022-12-05T00:31:43.884Z,17.48
2022-12-05T00:34:12.156Z,18.15
2022-12-05T00:36:40.308Z,16.80
2022-12-05T00:39:10.712Z,16.95
2022-12-05T00:41:38.836Z,17.20
2022-12-05T00:44:07.067Z,16.17
2022-12-05T00:46:36.229Z,13.57
2022-12-05T00:49:07.450Z,16.10
2022-12-05T00:51:37.540Z,17.73
2022-12-05T00:54:07.853Z,15.35
2022-12-05T00:56:36.645Z,17.83
2022-12-05T00:59:06.468Z,17.35
2022-12-05T01:01:37.328Z,15.73
2022-12-05T01:04:09.726Z,17.45
2022-12-05T01:06:38.353Z,15.27
2022-12-05T01:09:07.003Z,18.63
2022-12-05T01:11:40.959Z,16.33
2022-12-05T01:14:10.039Z,19.15
2022-12-05T01:16:40.096Z,17.38
2022-12-05T01:21:41.405Z,16.25
2022-12-05T01:24:09.764Z,16.77
2022-12-05T01:26:38.042Z,17.92
2022-12-05T01:29:06.608Z,15.55
2022-12-05T01:31:37.127Z,16.35
2022-12-05T01:34:08.456Z,16.85
2022-12-05T01:36:39.345Z,17.77
2022-12-05T01:39:11.595Z,17.83
2022-12-05T01:41:42.457Z,17.08
2022-12-05T01:44:40.328Z,16.48
2022-12-05T01:47:09.750Z,16.77
2022-12-05T01:49:43.187Z,17.60
2022-12-05T01:52:17.472Z,17.83
2022-12-05T01:54:49.250Z,19.77
2022-12-05T01:57:17.520Z,18.27
2022-12-05T01:59:50.834Z,16.95
2022-12-05T02:02:19.383Z,17.85
2022-12-05T02:04:59.147Z,17.92
2022-12-05T02:07:28.785Z,17.88
2022-12-05T02:09:57.024Z,18.92
2022-12-05T02:12:26.005Z,15.50
2022-12-05T02:15:06.704Z,18.90
2022-12-05T02:17:45.040Z,15.65
2022-12-05T02:20:27.543Z,19.83
2022-12-05T02:23:29.840Z,15.35
2022-12-05T02:26:24.616Z,16.40
2022-12-05T02:29:35.911Z,15.80
2022-12-05T02:32:11.867Z,17.42
2022-12-05T02:34:48.881Z,15.55
2022-12-05T02:37:23.938Z,15.85
2022-12-05T02:39:57.824Z,15.27
2022-12-05T02:42:32.777Z,14.85
2022-12-05T02:45:07.209Z,14.52
2022-12-05T02:47:40.001Z,16.25
2022-12-05T02:50:11.510Z,17.48
2022-12-05T02:52:39.887Z,17.17
2022-12-05T02:55:09.523Z,16.00
2022-12-05T02:57:39.651Z,15.23
2022-12-05T03:00:09.203Z,16.13
2022-12-05T03:02:40.685Z,16.73
2022-12-05T03:05:18.288Z,16.77
2022-12-05T03:07:52.551Z,16.13
2022-12-05T03:10:23.343Z,15.77
2022-12-05T03:12:55.975Z,15.70
2022-12-05T03:15:30.757Z,16.05
2022-12-05T03:18:04.599Z,16.33
2022-12-05T03:20:36.334Z,15.45
2022-12-05T03:23:09.676Z,15.93
2022-12-05T03:25:46.879Z,14.63
2022-12-05T03:28:21.149Z,18.45
2022-12-05T03:30:53.383Z,17.20
2022-12-05T03:36:03.591Z,16.80
2022-12-05T03:38:36.222Z,15.57
2022-12-05T03:41:10.556Z,15.95
2022-12-05T03:43:50.561Z,17.13
2022-12-05T03:46:25.152Z,14.63
2022-12-05T03:48:58.742Z,15.77
2022-12-05T03:51:35.459Z,15.70
2022-12-05T03:54:07.825Z,15.10
2022-12-05T03:56:41.574Z,15.48
2022-12-05T03:59:17.457Z,14.25
2022-12-05T04:01:48.436Z,14.10
2022-12-05T04:04:26.775Z,14.90
2022-12-05T04:06:57.269Z,15.52
2022-12-05T04:09:29.633Z,14.80
2022-12-05T04:12:03.303Z,14.65
2022-12-05T04:14:36.565Z,13.63
2022-12-05T04:17:06.233Z,15.25
2022-12-05T04:20:01.216Z,13.50
2022-12-05T04:22:29.906Z,13.98
2022-12-05T04:25:18.150Z,14.80
2022-12-05T04:27:53.468Z,13.80
2022-12-05T04:30:24.601Z,14.98
2022-12-05T04:33:01.274Z,15.07
2022-12-05T04:35:36.876Z,13.77
2022-12-05T04:38:09.985Z,14.57
2022-12-05T04:40:43.904Z,14.18
2022-12-05T04:43:16.652Z,13.98
2022-12-05T04:45:45.660Z,14.57
2022-12-05T04:48:18.092Z,14.15
2022-12-05T04:50:50.544Z,13.13
2022-12-05T04:53:19.537Z,14.65
2022-12-05T04:55:51.394Z,13.88
2022-12-05T04:58:21.966Z,14.23
2022-12-05T05:00:58.452Z,13.18
2022-12-05T05:03:31.165Z,14.85
2022-12-05T05:06:00.661Z,13.63
2022-12-05T05:08:30.430Z,12.98
2022-12-05T05:11:13.323Z,12.48
2022-12-05T05:13:41.644Z,13.88
2022-12-05T05:16:10.379Z,13.50
2022-12-05T05:18:38.383Z,15.40
2022-12-05T05:21:07.728Z,13.23
2022-12-05T05:23:35.725Z,14.32
2022-12-05T05:26:03.949Z,13.10
2022-12-05T05:28:31.866Z,12.93
2022-12-05T05:31:03.624Z,13.07
2022-12-05T05:33:31.638Z,14.75
2022-12-05T05:36:03.681Z,12.90
2022-12-05T05:38:36.666Z,11.82
2022-12-05T05:41:05.225Z,14.15
2022-12-05T05:43:33.138Z,14.88
2022-12-05T05:46:04.792Z,11.82
2022-12-05T05:48:32.774Z,13.05
2022-12-05T05:51:01.137Z,14.07
2022-12-05T05:53:29.240Z,13.30
2022-12-05T05:55:58.481Z,13.23
2022-12-05T05:58:26.439Z,13.68
2022-12-05T06:00:54.418Z,13.68
2022-12-05T06:03:22.680Z,13.20
2022-12-05T06:05:58.037Z,12.82
2022-12-05T06:08:30.880Z,11.68
2022-12-05T06:11:00.254Z,11.48
2022-12-05T06:13:28.143Z,11.43
2022-12-05T06:15:56.183Z,12.60
2022-12-05T06:18:24.194Z,10.90
2022-12-05T06:20:55.217Z,13.23
2022-12-05T06:23:23.539Z,12.30
2022-12-05T06:25:53.064Z,10.90
2022-12-05T06:28:24.036Z,13.93
2022-12-05T06:30:52.012Z,11.32
2022-12-05T06:33:20.621Z,11.57
2022-12-05T06:35:48.582Z,10.75
2022-12-05T06:38:16.624Z,12.10
2022-12-05T06:40:45.992Z,13.43
2022-12-05T06:43:14.215Z,12.63
2022-12-05T06:45:43.605Z,11.23
2022-12-05T06:48:11.879Z,11.85
2022-12-05T06:50:39.837Z,11.77
2022-12-05T06:53:07.787Z,12.70
2022-12-05T06:55:35.819Z,11.88
2022-12-05T06:58:03.707Z,11.10
2022-12-05T07:00:48.989Z,12.55
2022-12-05T07:03:18.350Z,12.27
2022-12-05T07:05:46.240Z,12.52
2022-12-05T07:08:14.536Z,13.25
2022-12-05T07:10:42.523Z,13.20
2022-12-05T07:13:14.487Z,11.20
2022-12-05T07:15:43.920Z,12.05
2022-12-05T07:18:14.785Z,11.80
2022-12-05T07:21:10.603Z,10.80
2022-12-05T07:23:32.652Z,12.40
2022-12-05T07:26:00.925Z,11.38
2022-12-05T07:28:30.015Z,12.52
2022-12-05T07:31:02.277Z,10.88
2022-12-05T07:36:02.852Z,10.57
2022-12-05T07:38:31.854Z,11.88
2022-12-05T07:40:59.938Z,11.95
2022-12-05T07:43:27.801Z,11.77
2022-12-05T07:45:55.780Z,10.88
2022-12-05T07:48:23.679Z,10.68
2022-12-05T07:50:51.654Z,10.27
2022-12-05T07:53:21.069Z,10.07
2022-12-05T07:55:49.027Z,10.60
2022-12-05T07:58:17.106Z,9.68
2022-12-05T08:00:45.135Z,10.88
2022-12-05T08:03:13.169Z,10.48
2022-12-05T08:05:41.039Z,9.88
2022-12-05T08:08:08.994Z,10.30
2022-12-05T08:10:38.429Z,11.02
2022-12-05T08:13:08.017Z,11.25
2022-12-05T08:15:37.093Z,9.82
2022-12-05T08:18:05.208Z,10.85
2022-12-05T08:20:33.188Z,10.65
2022-12-05T08:23:01.150Z,9.77
2022-12-05T08:25:31.199Z,10.52
2022-12-05T08:28:00.495Z,9.65
2022-12-05T08:30:28.592Z,10.40
2022-12-05T08:32:58.686Z,9.45
2022-12-05T08:35:26.611Z,10.98
2022-12-05T08:37:54.832Z,10.45
2022-12-05T08:40:22.871Z,10.77
2022-12-05T08:42:50.873Z,13.27
2022-12-05T08:45:20.184Z,9.55
2022-12-05T08:47:48.058Z,9.18
2022-12-05T08:50:16.027Z,9.40
2022-12-05T08:52:43.963Z,11.40
2022-12-05T08:55:11.934Z,10.15
2022-12-05T08:57:39.905Z,9.90
2022-12-05T09:00:09.252Z,10.57
2022-12-05T09:02:38.612Z,9.52
2022-12-05T09:05:26.377Z,10.30
2022-12-05T09:07:55.767Z,9.32
2022-12-05T09:10:23.848Z,10.80
2022-12-05T09:12:51.786Z,10.25
2022-12-05T09:15:19.921Z,10.13
2022-12-05T09:17:49.330Z,10.60
2022-12-05T09:20:17.340Z,10.82
2022-12-05T09:22:45.296Z,8.82
2022-12-05T09:25:13.356Z,10.02
2022-12-05T09:27:41.389Z,9.73
2022-12-05T09:30:12.512Z,9.93
2022-12-05T09:32:43.085Z,10.15
2022-12-05T09:35:12.396Z,10.55
2022-12-05T09:37:40.496Z,10.35
2022-12-05T09:40:16.460Z,9.63
2022-12-05T09:42:58.476Z,11.77
2022-12-05T09:45:35.426Z,10.02
2022-12-05T09:48:08.867Z,9.02
2022-12-05T09:50:45.330Z,9.52
2022-12-05T09:53:23.592Z,9.65
2022-12-05T09:55:56.133Z,10.02
2022-12-05T09:58:29.927Z,11.57
2022-12-05T10:01:03.679Z,11.23
2022-12-05T10:03:39.953Z,10.85
2022-12-05T10:06:16.622Z,10.43
2022-12-05T10:08:59.565Z,10.23
2022-12-05T10:11:35.112Z,10.10
2022-12-05T10:14:09.512Z,11.80
2022-12-05T10:16:43.343Z,10.77
2022-12-05T10:19:17.320Z,10.48
2022-12-05T10:21:52.603Z,8.98
2022-12-05T10:24:29.156Z,10.27
2022-12-05T10:27:01.413Z,10.25
2022-12-05T10:29:32.916Z,10.32
2022-12-05T10:32:08.528Z,13.45
2022-12-05T10:34:40.190Z,10.63
2022-12-05T10:37:16.589Z,10.73
2022-12-05T10:39:45.254Z,8.10
2022-12-05T10:42:18.282Z,10.32
2022-12-05T10:44:46.452Z,9.82
2022-12-05T10:47:14.884Z,9.68
2022-12-05T10:49:43.470Z,9.85
2022-12-05T10:52:14.769Z,10.02
2022-12-05T10:54:47.957Z,10.52
2022-12-05T10:57:24.367Z,9.02
2022-12-05T10:59:52.397Z,9.02
2022-12-05T11:02:26.107Z,11.15
2022-12-05T11:04:55.063Z,9.38
2022-12-05T11:07:31.548Z,9.27
2022-12-05T11:10:01.417Z,9.73
2022-12-05T11:12:37.405Z,9.57
2022-12-05T11:15:21.932Z,10.52
2022-12-05T11:17:54.035Z,10.20
2022-12-05T11:20:39.224Z,9.45
2022-12-05T11:23:30.916Z,9.25
2022-12-05T11:26:00.057Z,9.03
2022-12-05T11:28:36.346Z,8.30
2022-12-05T11:31:06.783Z,8.32
2022-12-05T11:33:36.146Z,8.25
2022-12-05T11:36:13.021Z,7.55
2022-12-05T11:38:43.032Z,9.82
2022-12-05T11:41:36.551Z,7.30
2022-12-05T11:44:20.797Z,7.95
2022-12-05T11:47:01.942Z,7.30
2022-12-05T11:49:46.247Z,7.85
2022-12-05T11:52:29.545Z,7.03
2022-12-05T11:55:14.422Z,7.00
2022-12-05T11:58:06.753Z,8.23
2022-12-05T12:03:41.870Z,8.68
2022-12-05T12:06:26.193Z,8.13
2022-12-05T12:09:21.309Z,6.13
2022-12-05T12:11:57.355Z,8.35
2022-12-05T12:14:33.476Z,6.50
2022-12-05T12:17:16.292Z,7.68
2022-12-05T12:20:05.248Z,8.43
2022-12-05T12:22:49.585Z,9.55
2022-12-05T12:25:27.231Z,7.15
2022-12-05T12:28:11.120Z,7.65
2022-12-05T12:30:56.108Z,6.85
2022-12-05T12:33:33.803Z,6.40
2022-12-05T12:36:13.011Z,6.13
2022-12-05T12:39:00.238Z,8.02
2022-12-05T12:41:46.315Z,6.85
2022-12-05T12:44:43.983Z,6.40
2022-12-05T12:47:21.360Z,7.85
2022-12-05T12:50:00.821Z,7.60
2022-12-05T12:52:38.160Z,6.50
2022-12-05T12:55:22.965Z,7.28
2022-12-05T12:58:03.289Z,7.72
2022-12-05T13:00:45.786Z,6.05
2022-12-05T13:03:18.673Z,6.65
2022-12-05T13:05:50.230Z,6.60
2022-12-05T13:08:25.459Z,7.25
2022-12-05T13:10:54.675Z,7.50
2022-12-05T13:13:27.048Z,6.22
2022-12-05T13:15:59.739Z,6.53
2022-12-05T13:18:27.873Z,6.72
2022-12-05T13:20:57.935Z,7.40
2022-12-05T13:23:28.863Z,6.85
2022-12-05T13:25:59.588Z,7.40
2022-12-05T13:28:31.168Z,5.72
2022-12-05T13:31:06.366Z,7.10
2022-12-05T13:33:37.753Z,6.72
2022-12-05T13:36:29.713Z,6.70
2022-12-05T13:39:18.265Z,7.03
2022-12-05T13:42:06.158Z,5.70
2022-12-05T13:44:38.985Z,6.47
2022-12-05T13:47:20.496Z,5.50
2022-12-05T13:49:53.946Z,5.20
2022-12-05T13:52:26.430Z,5.13
2022-12-05T13:54:59.390Z,6.30
2022-12-05T13:57:46.545Z,5.57
2022-12-05T14:00:30.493Z,5.93
2022-12-05T14:03:03.382Z,5.90
2022-12-05T14:05:46.602Z,6.07
2022-12-05T14:08:52.733Z,5.28
2022-12-05T14:11:20.962Z,5.20
2022-12-05T14:13:49.734Z,6.38
2022-12-05T14:16:44.377Z,5.40
2022-12-05T14:19:34.521Z,5.07
2022-12-05T14:22:24.121Z,4.72
2022-12-05T14:25:00.007Z,7.45
2022-12-05T14:27:44.389Z,5.40
2022-12-05T14:30:22.703Z,4.85
2022-12-05T14:32:54.169Z,8.90
2022-12-05T14:35:30.699Z,6.33
2022-12-05T14:38:02.563Z,5.00
2022-12-05T14:40:33.937Z,5.63
2022-12-05T14:43:05.056Z,6.28
2022-12-05T14:45:39.942Z,5.28
2022-12-05T14:48:28.490Z,4.28
2022-12-05T14:50:59.215Z,5.35
2022-12-05T14:53:40.618Z,5.03
2022-12-05T14:56:21.893Z,6.82
2022-12-05T14:58:52.839Z,6.40
2022-12-05T15:01:24.187Z,7.30
2022-12-05T15:04:10.368Z,5.53
2022-12-05T15:06:47.946Z,4.20
2022-12-05T15:09:42.410Z,5.80
2022-12-05T15:12:16.020Z,5.82
2022-12-05T15:14:54.610Z,5.32
2022-12-05T15:17:28.674Z,5.45
2022-12-05T15:20:05.041Z,4.30
2022-12-05T15:22:38.726Z,4.32
2022-12-05T15:25:27.832Z,4.30
2022-12-05T15:27:58.772Z,4.30
2022-12-05T15:30:27.256Z,5.35
2022-12-05T15:32:59.455Z,8.73
2022-12-05T15:35:32.259Z,4.68
2022-12-05T15:38:06.459Z,5.78
2022-12-05T15:40:37.863Z,5.28
2022-12-05T15:43:29.404Z,4.38
2022-12-05T15:46:25.423Z,5.07
2022-12-05T15:48:54.344Z,4.70
2022-12-05T15:51:26.182Z,5.63
2022-12-05T15:54:06.678Z,5.43
2022-12-05T15:56:39.354Z,4.18
2022-12-05T15:59:14.925Z,3.38
2022-12-05T16:01:45.798Z,4.40
2022-12-05T16:04:29.553Z,4.97
2022-12-05T16:07:02.433Z,4.07
2022-12-05T16:09:35.166Z,4.03
2022-12-05T16:12:06.097Z,5.63
2022-12-05T16:14:59.136Z,3.72
2022-12-05T16:17:25.795Z,5.40
2022-12-05T16:19:53.785Z,4.13
2022-12-05T16:22:24.461Z,4.53
2022-12-05T16:25:02.032Z,3.50
2022-12-05T16:27:33.322Z,3.63
2022-12-05T16:30:20.082Z,5.07
2022-12-05T16:32:50.034Z,6.07
2022-12-05T16:35:32.652Z,3.53
2022-12-05T16:38:11.142Z,4.22
2022-12-05T16:40:53.243Z,7.07
2022-12-05T16:43:27.110Z,5.32
2022-12-05T16:45:57.121Z,3.58
2022-12-05T16:48:27.405Z,4.97
2022-12-05T16:51:17.694Z,4.25
2022-12-05T16:53:47.308Z,3.35
2022-12-05T16:56:18.098Z,3.63
2022-12-05T16:58:46.070Z,4.45
2022-12-05T17:01:18.724Z,3.58
2022-12-05T17:03:46.985Z,6.40
2022-12-05T17:06:15.857Z,26.98
2022-12-05T17:08:43.912Z,15.10
2022-12-05T17:11:20.010Z,12.73
2022-12-05T17:13:48.668Z,12.52
2022-12-05T17:16:17.270Z,8.73
2022-12-05T17:18:45.261Z,8.57
2022-12-05T17:21:17.619Z,9.45
2022-12-05T17:23:48.010Z,7.97
2022-12-05T17:26:19.656Z,6.80
2022-12-05T17:28:47.800Z,9.97
2022-12-05T17:31:17.471Z,6.40
2022-12-05T17:33:45.996Z,8.55
2022-12-05T17:36:14.552Z,8.10
2022-12-05T17:38:42.817Z,7.50
2022-12-05T17:41:18.319Z,7.60
2022-12-05T17:43:46.671Z,6.90
2022-12-05T17:46:17.368Z,6.97
2022-12-05T17:48:45.373Z,4.78
2022-12-05T17:51:14.633Z,5.45
2022-12-05T17:53:44.442Z,6.55
2022-12-05T17:56:13.383Z,8.65
2022-12-05T17:58:43.153Z,5.10
2022-12-05T18:01:16.198Z,5.80
2022-12-05T18:03:44.387Z,6.53
2022-12-05T18:06:12.705Z,4.82
2022-12-05T18:08:42.141Z,6.15
2022-12-05T18:11:10.188Z,7.85
2022-12-05T18:13:38.591Z,4.32
2022-12-05T18:16:08.675Z,4.88
2022-12-05T18:18:36.701Z,4.43
2022-12-05T18:21:06.881Z,5.60
2022-12-05T18:23:36.028Z,3.97
2022-12-05T18:26:04.552Z,4.60
2022-12-05T18:28:32.474Z,6.82
2022-12-05T18:31:09.369Z,4.95
2022-12-05T18:33:37.772Z,4.40
2022-12-05T18:36:11.504Z,7.22
2022-12-05T18:38:40.742Z,5.72
2022-12-05T18:41:08.742Z,5.68
2022-12-05T18:43:37.334Z,4.00
2022-12-05T18:46:06.056Z,4.10
2022-12-05T18:48:40.128Z,3.90
2022-12-05T18:51:12.097Z,6.97
2022-12-05T18:53:40.236Z,6.05
2022-12-05T18:56:22.278Z,4.55
2022-12-05T18:58:55.568Z,3.38
2022-12-05T19:01:23.920Z,4.57
2022-12-05T19:03:53.490Z,3.08
2022-12-05T19:06:23.395Z,3.15
2022-12-05T19:08:55.128Z,7.50
2022-12-05T19:11:24.026Z,6.18
2022-12-05T19:13:55.957Z,4.50
2022-12-05T19:16:24.272Z,3.38
2022-12-05T19:18:56.661Z,3.97
2022-12-05T19:21:25.695Z,4.15
2022-12-05T19:23:54.088Z,4.75
2022-12-05T19:26:23.232Z,4.07
2022-12-05T19:28:51.193Z,4.65
2022-12-05T19:31:21.474Z,4.15
2022-12-05T19:33:51.516Z,3.45
2022-12-05T19:36:22.734Z,3.50
2022-12-05T19:38:52.066Z,5.20
2022-12-05T19:41:22.613Z,3.38
2022-12-05T19:43:50.898Z,3.55
2022-12-05T19:46:20.513Z,4.72
2022-12-05T19:48:48.965Z,3.53
2022-12-05T19:51:21.378Z,3.92
2022-12-05T19:53:49.557Z,5.72
2022-12-05T19:56:19.474Z,3.55
2022-12-05T19:58:48.439Z,4.60
2022-12-05T20:01:18.661Z,3.75
2022-12-05T20:03:49.110Z,4.13
2022-12-05T20:06:17.647Z,4.53
2022-12-05T20:08:47.341Z,3.50
2022-12-05T20:11:18.039Z,2.92
2022-12-05T20:13:47.594Z,4.18
2022-12-05T20:16:18.476Z,3.45
2022-12-05T20:18:47.048Z,2.90
2022-12-05T20:21:16.850Z,3.10
2022-12-05T20:23:46.513Z,2.40
2022-12-05T20:26:16.676Z,3.63
2022-12-05T20:28:45.622Z,4.85
2022-12-05T20:31:17.285Z,3.35
2022-12-05T20:33:46.122Z,3.70
2022-12-05T20:36:15.993Z,2.88
2022-12-05T20:38:44.035Z,3.72
2022-12-05T20:41:16.395Z,3.13
2022-12-05T20:43:45.071Z,3.33
2022-12-05T20:46:15.853Z,2.50
2022-12-05T20:48:47.583Z,4.22
2022-12-05T20:51:17.296Z,4.47
2022-12-05T20:53:46.287Z,2.17
2022-12-05T20:56:17.130Z,4.60
2022-12-05T20:58:46.875Z,2.58
2022-12-05T21:01:16.611Z,3.75
2022-12-05T21:03:49.676Z,3.05
2022-12-05T21:06:20.531Z,4.07
2022-12-05T21:08:48.484Z,3.10
2022-12-05T21:11:17.773Z,2.97
2022-12-05T21:13:46.168Z,2.40
2022-12-05T21:16:17.130Z,3.45
2022-12-05T21:18:45.781Z,2.63
2022-12-05T21:21:15.918Z,4.22
2022-12-05T21:23:48.481Z,3.90
2022-12-05T21:26:18.902Z,2.83
2022-12-05T21:28:47.503Z,2.50
2022-12-05T21:31:18.069Z,2.88
2022-12-05T21:33:49.292Z,2.00
2022-12-05T21:36:18.141Z,2.65
2022-12-05T21:38:49.539Z,3.28
2022-12-05T21:41:23.606Z,3.10
2022-12-05T21:43:54.994Z,3.67
2022-12-05T21:46:24.102Z,2.63
2022-12-05T21:48:52.381Z,4.15
2022-12-05T21:51:20.925Z,3.65
2022-12-05T21:53:48.937Z,2.30
2022-12-05T21:56:19.609Z,2.65
2022-12-05T21:58:48.881Z,3.60
2022-12-05T22:01:19.680Z,2.42
2022-12-05T22:03:48.105Z,2.95
2022-12-05T22:06:16.389Z,2.50
2022-12-05T22:08:44.389Z,3.00
2022-12-05T22:11:14.618Z,2.45
2022-12-05T22:13:44.298Z,3.22
2022-12-05T22:16:14.154Z,2.53
2022-12-05T22:18:42.536Z,4.00
2022-12-05T22:21:14.461Z,3.00
2022-12-05T22:23:42.515Z,2.10
2022-12-05T22:26:11.841Z,3.17
2022-12-05T22:28:40.868Z,1.95
2022-12-05T22:31:11.148Z,4.78
2022-12-05T22:33:40.700Z,2.53
2022-12-05T22:36:10.767Z,3.13
2022-12-05T22:38:40.314Z,2.20
2022-12-05T22:41:10.865Z,3.47
2022-12-05T22:43:39.174Z,2.00
2022-12-05T22:46:08.506Z,2.75
2022-12-05T22:48:37.059Z,3.42
2022-12-05T22:51:07.863Z,2.53
2022-12-05T22:53:36.276Z,2.20
2022-12-05T22:56:05.861Z,2.20
2022-12-05T22:58:34.245Z,3.00
2022-12-05T23:01:09.755Z,2.10
2022-12-05T23:03:38.043Z,2.25
2022-12-05T23:06:11.814Z,2.92
2022-12-05T23:08:40.603Z,2.13
2022-12-05T23:11:09.837Z,2.00
2022-12-05T23:13:39.398Z,1.92
2022-12-05T23:16:09.007Z,4.03
2022-12-05T23:18:46.931Z,2.78
2022-12-05T23:21:20.092Z,3.03
2022-12-05T23:23:49.018Z,2.65
2022-12-05T23:26:17.993Z,1.83
2022-12-05T23:28:46.234Z,12.50
2022-12-05T23:31:15.141Z,33.55
2022-12-05T23:33:43.768Z,22.15
2022-12-05T23:36:12.300Z,26.70
2022-12-05T23:38:43.395Z,23.90
2022-12-05T23:41:14.306Z,27.27
2022-12-05T23:43:43.521Z,22.05
2022-12-05T23:46:13.621Z,24.25
2022-12-05T23:48:42.248Z,23.70
2022-12-05T23:51:12.820Z,22.63
2022-12-05T23:53:44.509Z,23.90
2022-12-05T23:56:14.822Z,22.30
2022-12-05T23:58:43.675Z,18.00
